Time;durP1;ratioP1;P1;durP2;ratioP2;P2;SDS_P1;SDS_P2;PMS_P1;PMS_P2;Temp;Humidity;BMP_temperature;BMP_pressure;BME280_temperature;BME280_humidity;BME280_pressure;Samples;Min_cycle;Max_cycle;Signal;HPM_P1;HPM_P2
2024/03/19 00:00:59;;;;;;;41.75;19.35;;;;;;;;;;6220027;23;20032;-91
2024/03/19 00:03:26;;;;;;;34.50;19.75;;;;;;;;;;6219744;23;20020;-92
2024/03/19 00:05:52;;;;;;;41.35;20.63;;;;;;;;;;6219845;23;20027;-92
2024/03/19 00:08:18;;;;;;;43.28;21.55;;;;;;;;;;6219716;23;20340;-92
2024/03/19 00:10:45;;;;;;;50.10;21.60;;;;;;;;;;6219677;23;20027;-92
2024/03/19 00:13:11;;;;;;;39.70;18.90;;;;;;;;;;6219941;23;20074;-91
2024/03/19 00:15:37;;;;;;;32.17;18.92;;;;;;;;;;6219654;23;20449;-92
2024/03/19 00:18:03;;;;;;;32.75;19.20;;;;;;;;;;6220120;23;20020;-92
2024/03/19 00:20:30;;;;;;;34.67;19.13;;;;;;;;;;6219834;23;20028;-92
2024/03/19 00:22:56;;;;;;;33.33;18.48;;;;;;;;;;6219256;23;20340;-92
2024/03/19 00:25:24;;;;;;;28.27;17.67;;;;;;;;;;6219789;23;20020;-92
2024/03/19 00:27:51;;;;;;;38.13;18.48;;;;;;;;;;6219775;23;20047;-92
2024/03/19 00:30:17;;;;;;;33.55;17.90;;;;;;;;;;6219823;23;20020;-92
2024/03/19 00:32:44;;;;;;;33.30;17.67;;;;;;;;;;6219719;23;20020;-92
2024/03/19 00:35:10;;;;;;;27.67;16.35;;;;;;;;;;6220263;23;20353;-92
2024/03/19 00:37:37;;;;;;;27.15;17.08;;;;;;;;;;6219845;23;20440;-92
2024/03/19 00:40:04;;;;;;;30.00;16.63;;;;;;;;;;6219786;23;20028;-92
2024/03/19 00:42:31;;;;;;;28.58;16.60;;;;;;;;;;6219624;23;20016;-92
2024/03/19 00:44:58;;;;;;;32.55;16.48;;;;;;;;;;6219697;23;20024;-92
2024/03/19 00:47:26;;;;;;;26.08;15.75;;;;;;;;;;6219884;23;20016;-92
2024/03/19 00:49:52;;;;;;;30.45;16.58;;;;;;;;;;6219886;23;20449;-92
2024/03/19 00:52:18;;;;;;;28.25;16.63;;;;;;;;;;6219543;23;20020;-92
2024/03/19 00:54:45;;;;;;;33.35;17.63;;;;;;;;;;6221564;23;20016;-92
2024/03/19 00:57:11;;;;;;;31.33;17.70;;;;;;;;;;6242731;23;20091;-92
2024/03/19 00:59:37;;;;;;;32.00;17.55;;;;;;;;;;6224474;23;20026;-92
2024/03/19 01:02:06;;;;;;;43.65;20.60;;;;;;;;;;6219423;23;20020;-92
2024/03/19 01:04:33;;;;;;;37.95;19.42;;;;;;;;;;6219818;23;20024;-93
2024/03/19 01:07:00;;;;;;;34.30;17.88;;;;;;;;;;6221544;23;20020;-92
2024/03/19 01:09:27;;;;;;;34.97;17.90;;;;;;;;;;6221376;23;20031;-92
2024/03/19 01:11:54;;;;;;;32.92;17.90;;;;;;;;;;6221762;23;20383;-92
2024/03/19 01:14:20;;;;;;;33.40;17.75;;;;;;;;;;6221663;23;20079;-92
2024/03/19 01:16:47;;;;;;;33.10;18.13;;;;;;;;;;6221602;23;20016;-92
2024/03/19 01:19:13;;;;;;;38.05;19.35;;;;;;;;;;6221305;23;20522;-92
2024/03/19 01:21:39;;;;;;;45.47;21.17;;;;;;;;;;6221197;23;20374;-92
2024/03/19 01:24:06;;;;;;;54.67;23.50;;;;;;;;;;6221565;23;20043;-92
2024/03/19 01:26:35;;;;;;;39.08;21.27;;;;;;;;;;6221501;23;20031;-92
2024/03/19 01:29:01;;;;;;;33.92;20.73;;;;;;;;;;6221333;23;20016;-91
2024/03/19 01:31:29;;;;;;;39.92;20.80;;;;;;;;;;6221382;23;20019;-92
2024/03/19 01:33:58;;;;;;;42.17;20.98;;;;;;;;;;6221201;23;20070;-92
2024/03/19 01:36:24;;;;;;;35.40;20.10;;;;;;;;;;6221473;23;20024;-92
2024/03/19 01:38:51;;;;;;;48.30;22.17;;;;;;;;;;6221203;23;20024;-92
2024/03/19 01:41:17;;;;;;;34.50;18.67;;;;;;;;;;6222056;23;20016;-92
2024/03/19 01:43:47;;;;;;;38.00;20.00;;;;;;;;;;6221197;23;20024;-92
2024/03/19 01:46:23;;;;;;;35.80;20.08;;;;;;;;;;6221054;23;20016;-92
2024/03/19 01:48:50;;;;;;;33.72;19.02;;;;;;;;;;6221287;23;20024;-92
2024/03/19 01:51:17;;;;;;;33.47;18.15;;;;;;;;;;6221086;23;20020;-92
2024/03/19 01:53:44;;;;;;;36.03;18.13;;;;;;;;;;6220940;23;20016;-92
2024/03/19 01:56:11;;;;;;;36.80;18.65;;;;;;;;;;6221358;23;20031;-92
2024/03/19 01:58:38;;;;;;;32.78;17.42;;;;;;;;;;6221303;23;20020;-92
2024/03/19 02:01:04;;;;;;;30.27;17.48;;;;;;;;;;6220604;23;20031;-92
2024/03/19 02:03:31;;;;;;;28.90;18.27;;;;;;;;;;6220856;23;20020;-92
2024/03/19 02:05:57;;;;;;;36.45;18.20;;;;;;;;;;6221233;23;20024;-92
2024/03/19 02:08:24;;;;;;;34.97;18.05;;;;;;;;;;6220762;23;20514;-91
2024/03/19 02:10:50;;;;;;;29.88;16.85;;;;;;;;;;6229294;22;20024;-89
2024/03/19 02:13:16;;;;;;;31.70;18.13;;;;;;;;;;6239036;23;20445;-92
2024/03/19 02:15:43;;;;;;;28.63;16.90;;;;;;;;;;6221562;23;20027;-92
2024/03/19 02:18:09;;;;;;;34.83;19.63;;;;;;;;;;6221128;23;20020;-92
2024/03/19 02:20:35;;;;;;;38.58;19.02;;;;;;;;;;6221394;23;20023;-92
2024/03/19 02:23:02;;;;;;;32.45;17.60;;;;;;;;;;6221063;23;20016;-91
2024/03/19 02:25:28;;;;;;;36.65;18.23;;;;;;;;;;6221122;23;20024;-92
2024/03/19 02:27:55;;;;;;;36.35;18.70;;;;;;;;;;6220771;23;20016;-92
2024/03/19 02:30:23;;;;;;;33.55;19.23;;;;;;;;;;6220716;23;20050;-92
2024/03/19 02:32:49;;;;;;;36.92;19.10;;;;;;;;;;6221048;23;20326;-92
2024/03/19 02:35:16;;;;;;;36.63;18.17;;;;;;;;;;6220904;23;20023;-92
2024/03/19 02:37:42;;;;;;;34.60;19.55;;;;;;;;;;6220617;23;20024;-92
2024/03/19 02:40:09;;;;;;;41.08;21.17;;;;;;;;;;6221165;23;20027;-91
2024/03/19 02:42:35;;;;;;;40.25;20.98;;;;;;;;;;6220437;23;20024;-92
2024/03/19 02:45:02;;;;;;;42.00;21.88;;;;;;;;;;6220156;23;20027;-92
2024/03/19 02:47:28;;;;;;;34.53;19.35;;;;;;;;;;6220601;23;20020;-92
2024/03/19 02:49:54;;;;;;;39.47;20.70;;;;;;;;;;6220791;23;20020;-92
2024/03/19 02:52:21;;;;;;;37.67;21.40;;;;;;;;;;6220841;23;20016;-92
2024/03/19 02:54:47;;;;;;;42.60;21.67;;;;;;;;;;6220517;23;20515;-93
2024/03/19 02:57:14;;;;;;;33.97;20.67;;;;;;;;;;6220316;23;20069;-92
2024/03/19 02:59:41;;;;;;;36.35;20.27;;;;;;;;;;6220692;23;20020;-92
2024/03/19 03:02:07;;;;;;;37.22;19.98;;;;;;;;;;6220415;23;20020;-92
2024/03/19 03:04:33;;;;;;;32.92;18.88;;;;;;;;;;6220165;23;20024;-92
2024/03/19 03:06:59;;;;;;;30.33;18.80;;;;;;;;;;6220222;23;20020;-92
2024/03/19 03:09:26;;;;;;;35.58;20.48;;;;;;;;;;6220319;23;20024;-92
2024/03/19 03:11:52;;;;;;;37.35;20.00;;;;;;;;;;6220090;23;20023;-92
2024/03/19 03:14:19;;;;;;;37.85;20.95;;;;;;;;;;6220099;23;20024;-92
2024/03/19 03:16:45;;;;;;;30.55;18.08;;;;;;;;;;6220507;23;20082;-92
2024/03/19 03:19:12;;;;;;;32.00;19.92;;;;;;;;;;6220253;23;20020;-91
2024/03/19 03:21:39;;;;;;;32.25;18.70;;;;;;;;;;6220604;23;20020;-92
2024/03/19 03:24:05;;;;;;;31.10;19.88;;;;;;;;;;6220077;23;20023;-91
2024/03/19 03:26:32;;;;;;;33.42;19.50;;;;;;;;;;6233744;23;20018;-91
2024/03/19 03:28:58;;;;;;;38.25;19.67;;;;;;;;;;6233158;23;20045;-92
2024/03/19 03:31:27;;;;;;;34.90;20.67;;;;;;;;;;6220312;23;20020;-92
2024/03/19 03:33:53;;;;;;;34.50;19.65;;;;;;;;;;6220280;23;20349;-93
2024/03/19 03:36:19;;;;;;;32.20;19.40;;;;;;;;;;6220285;23;20039;-92
2024/03/19 03:38:45;;;;;;;29.15;18.42;;;;;;;;;;6219746;23;20016;-92
2024/03/19 03:41:12;;;;;;;36.78;21.60;;;;;;;;;;6219953;23;20452;-92
2024/03/19 03:43:39;;;;;;;32.60;19.90;;;;;;;;;;6219690;23;20024;-92
2024/03/19 03:46:05;;;;;;;39.45;21.45;;;;;;;;;;6220113;23;20456;-92
2024/03/19 03:48:31;;;;;;;33.63;20.67;;;;;;;;;;6219987;23;20024;-92
2024/03/19 03:50:58;;;;;;;41.53;21.05;;;;;;;;;;6220181;23;20349;-92
2024/03/19 03:53:24;;;;;;;37.08;19.73;;;;;;;;;;6219681;23;20024;-92
2024/03/19 03:55:50;;;;;;;33.40;19.20;;;;;;;;;;6219893;23;20020;-92
2024/03/19 03:58:16;;;;;;;39.17;21.98;;;;;;;;;;6220006;23;20027;-92
2024/03/19 04:00:46;;;;;;;42.08;22.33;;;;;;;;;;6219936;23;20016;-92
2024/03/19 04:03:12;;;;;;;39.22;20.85;;;;;;;;;;6219829;23;20024;-92
2024/03/19 04:05:38;;;;;;;42.53;23.25;;;;;;;;;;6219773;23;20024;-92
2024/03/19 04:08:05;;;;;;;42.25;23.65;;;;;;;;;;6219649;23;20349;-90
2024/03/19 04:10:31;;;;;;;41.42;21.58;;;;;;;;;;6220367;23;20027;-92
2024/03/19 04:12:57;;;;;;;40.58;21.15;;;;;;;;;;6220080;23;20480;-91
2024/03/19 04:15:23;;;;;;;37.35;20.90;;;;;;;;;;6219756;23;20020;-93
2024/03/19 04:17:50;;;;;;;41.45;21.92;;;;;;;;;;6219794;23;20027;-89
2024/03/19 04:20:16;;;;;;;43.92;22.42;;;;;;;;;;6195214;23;20020;-90
2024/03/19 04:22:43;;;;;;;40.92;21.90;;;;;;;;;;6219855;23;20020;-91
2024/03/19 04:25:10;;;;;;;41.25;21.95;;;;;;;;;;6219978;23;20032;-91
2024/03/19 04:27:37;;;;;;;39.67;21.52;;;;;;;;;;6220449;23;20020;-91
2024/03/19 04:30:03;;;;;;;41.75;22.25;;;;;;;;;;6219823;23;20024;-91
2024/03/19 04:32:30;;;;;;;56.22;23.08;;;;;;;;;;6220203;23;20024;-91
2024/03/19 04:34:56;;;;;;;35.92;20.63;;;;;;;;;;6220014;23;20020;-91
2024/03/19 04:37:22;;;;;;;34.78;19.05;;;;;;;;;;6219743;23;20024;-90
2024/03/19 04:39:49;;;;;;;38.08;21.17;;;;;;;;;;6221996;23;20017;-91
2024/03/19 04:42:16;;;;;;;35.08;19.35;;;;;;;;;;6243682;22;20038;-89
2024/03/19 04:44:42;;;;;;;30.38;18.90;;;;;;;;;;6226976;23;20020;-90
2024/03/19 04:47:09;;;;;;;35.80;20.25;;;;;;;;;;6221766;23;20039;-91
2024/03/19 04:49:35;;;;;;;36.75;19.85;;;;;;;;;;6221876;23;20024;-90
2024/03/19 04:52:01;;;;;;;36.17;20.33;;;;;;;;;;6221740;23;20020;-91
2024/03/19 04:54:28;;;;;;;36.05;19.85;;;;;;;;;;6221328;23;20020;-91
2024/03/19 04:56:54;;;;;;;37.33;20.67;;;;;;;;;;6221719;23;20020;-91
2024/03/19 04:59:21;;;;;;;32.33;18.60;;;;;;;;;;6221911;23;20027;-91
2024/03/19 05:01:47;;;;;;;33.08;19.33;;;;;;;;;;6221472;23;20023;-90
2024/03/19 05:04:14;;;;;;;34.92;20.10;;;;;;;;;;6221308;23;20016;-90
2024/03/19 05:06:40;;;;;;;42.45;21.13;;;;;;;;;;6221726;23;20473;-90
2024/03/19 05:09:07;;;;;;;41.05;21.63;;;;;;;;;;6222007;23;20016;-91
2024/03/19 05:11:33;;;;;;;35.40;20.52;;;;;;;;;;6221752;23;20028;-90
2024/03/19 05:13:59;;;;;;;38.17;20.60;;;;;;;;;;6221790;23;20047;-93
2024/03/19 05:16:26;;;;;;;40.67;20.88;;;;;;;;;;6222062;23;20017;-91
2024/03/19 05:18:52;;;;;;;37.38;20.55;;;;;;;;;;6221758;23;20415;-91
2024/03/19 05:21:18;;;;;;;35.65;19.25;;;;;;;;;;6221908;23;20016;-90
2024/03/19 05:23:45;;;;;;;32.70;20.33;;;;;;;;;;6222104;23;20484;-91
2024/03/19 05:26:11;;;;;;;40.88;21.42;;;;;;;;;;6221935;23;20017;-91
2024/03/19 05:28:37;;;;;;;34.45;19.55;;;;;;;;;;6221654;23;20453;-90
2024/03/19 05:31:19;;;;;;;35.08;19.90;;;;;;;;;;6221648;23;20062;-91
2024/03/19 05:33:46;;;;;;;32.20;19.17;;;;;;;;;;6221463;23;20070;-91
2024/03/19 05:36:12;;;;;;;33.45;20.15;;;;;;;;;;6222020;23;20031;-90
2024/03/19 05:38:38;;;;;;;34.30;19.98;;;;;;;;;;6221826;23;20054;-91
2024/03/19 05:41:04;;;;;;;41.10;21.83;;;;;;;;;;6222059;23;20024;-91
2024/03/19 05:43:31;;;;;;;37.22;20.80;;;;;;;;;;6221284;23;20070;-91
2024/03/19 05:45:57;;;;;;;37.72;22.08;;;;;;;;;;6221300;23;20031;-91
2024/03/19 05:48:23;;;;;;;36.40;20.70;;;;;;;;;;6221514;23;20023;-91
2024/03/19 05:50:49;;;;;;;38.70;21.45;;;;;;;;;;6221262;23;20361;-91
2024/03/19 05:53:16;;;;;;;35.65;20.67;;;;;;;;;;6221427;23;20043;-93
2024/03/19 05:55:42;;;;;;;37.38;20.45;;;;;;;;;;6224018;23;20027;-91
2024/03/19 05:58:08;;;;;;;34.70;19.58;;;;;;;;;;6242333;23;20016;-90
2024/03/19 06:00:34;;;;;;;29.85;18.77;;;;;;;;;;6223710;23;20024;-93
2024/03/19 06:03:01;;;;;;;27.95;17.88;;;;;;;;;;6221003;23;20062;-91
2024/03/19 06:05:28;;;;;;;29.85;18.60;;;;;;;;;;6221433;23;20392;-93
2024/03/19 06:07:54;;;;;;;26.50;17.50;;;;;;;;;;6220957;23;20020;-91
2024/03/19 06:10:20;;;;;;;27.40;18.38;;;;;;;;;;6221186;23;20020;-91
2024/03/19 06:12:47;;;;;;;32.38;19.08;;;;;;;;;;6221680;23;20454;-91
2024/03/19 06:15:13;;;;;;;31.25;18.67;;;;;;;;;;6220862;23;20016;-94
2024/03/19 06:17:39;;;;;;;37.47;20.25;;;;;;;;;;6220853;23;20031;-91
2024/03/19 06:20:14;;;;;;;35.03;19.88;;;;;;;;;;6220998;23;20016;-93
2024/03/19 06:22:44;;;;;;;30.85;19.23;;;;;;;;;;6221120;23;20020;-91
2024/03/19 06:25:10;;;;;;;30.13;17.80;;;;;;;;;;6220842;23;20028;-91
2024/03/19 06:27:38;;;;;;;46.75;19.15;;;;;;;;;;6220749;23;20341;-93
2024/03/19 06:30:08;;;;;;;38.80;20.00;;;;;;;;;;6221502;23;20024;-93
2024/03/19 06:32:35;;;;;;;36.47;19.60;;;;;;;;;;6220539;23;20023;-91
2024/03/19 06:35:01;;;;;;;34.35;20.00;;;;;;;;;;6245955;23;20487;-91
2024/03/19 06:37:27;;;;;;;39.35;20.80;;;;;;;;;;6220674;23;20016;-94
2024/03/19 06:39:53;;;;;;;35.67;20.20;;;;;;;;;;6220610;23;20031;-93
2024/03/19 06:42:20;;;;;;;36.03;21.35;;;;;;;;;;6220273;23;20028;-91
2024/03/19 06:44:46;;;;;;;38.35;22.08;;;;;;;;;;6220850;23;20024;-91
2024/03/19 06:47:13;;;;;;;30.65;19.10;;;;;;;;;;6220889;23;20016;-94
2024/03/19 06:49:39;;;;;;;37.45;20.45;;;;;;;;;;6220515;23;20024;-93
2024/03/19 06:52:05;;;;;;;33.85;19.52;;;;;;;;;;6220637;23;20337;-94
2024/03/19 06:54:32;;;;;;;32.40;19.77;;;;;;;;;;6220421;23;20031;-94
2024/03/19 06:56:58;;;;;;;35.60;21.08;;;;;;;;;;6220460;23;20038;-91
2024/03/19 06:59:26;;;;;;;37.78;21.13;;;;;;;;;;6221403;23;20449;-93
2024/03/19 07:01:53;;;;;;;36.08;21.75;;;;;;;;;;6222026;23;20027;-94
2024/03/19 07:04:20;;;;;;;38.92;21.83;;;;;;;;;;6221553;23;20347;-94
2024/03/19 07:06:46;;;;;;;35.53;20.17;;;;;;;;;;6220580;23;20024;-94
2024/03/19 07:09:13;;;;;;;28.80;19.33;;;;;;;;;;6220836;23;20445;-93
2024/03/19 07:11:39;;;;;;;55.13;20.23;;;;;;;;;;6231157;23;20016;-94
2024/03/19 07:14:07;;;;;;;28.90;17.30;;;;;;;;;;6232537;23;20020;-94
2024/03/19 07:16:34;;;;;;;27.73;17.85;;;;;;;;;;6196116;23;20102;-93
2024/03/19 07:19:01;;;;;;;24.25;15.55;;;;;;;;;;6220924;23;20023;-93
2024/03/19 07:21:27;;;;;;;22.13;15.07;;;;;;;;;;6220816;23;20073;-94
2024/03/19 07:23:53;;;;;;;22.05;15.27;;;;;;;;;;6220297;23;20016;-93
2024/03/19 07:26:20;;;;;;;21.05;14.73;;;;;;;;;;6220405;23;20024;-94
2024/03/19 07:28:47;;;;;;;21.23;14.52;;;;;;;;;;6220532;23;20016;-94
2024/03/19 07:31:13;;;;;;;24.98;14.70;;;;;;;;;;6220449;23;20020;-94
2024/03/19 07:33:39;;;;;;;24.45;14.73;;;;;;;;;;6220940;23;20154;-93
2024/03/19 07:36:06;;;;;;;29.02;15.77;;;;;;;;;;6220875;23;20028;-88
2024/03/19 07:38:32;;;;;;;20.20;14.35;;;;;;;;;;6220073;23;20051;-94
2024/03/19 07:40:59;;;;;;;22.55;14.90;;;;;;;;;;6220669;23;20027;-94
2024/03/19 07:43:25;;;;;;;25.67;15.85;;;;;;;;;;6220729;23;20017;-94
2024/03/19 07:45:52;;;;;;;24.52;14.77;;;;;;;;;;6220502;23;20020;-94
2024/03/19 07:48:19;;;;;;;25.65;15.73;;;;;;;;;;6220748;23;20019;-94
2024/03/19 07:50:46;;;;;;;23.63;15.20;;;;;;;;;;6220530;23;20027;-93
2024/03/19 07:53:14;;;;;;;23.15;15.35;;;;;;;;;;6220414;23;20020;-94
2024/03/19 07:55:40;;;;;;;19.85;13.38;;;;;;;;;;6220602;23;20045;-93
2024/03/19 07:58:07;;;;;;;21.17;13.65;;;;;;;;;;6220299;23;20082;-93
2024/03/19 08:00:34;;;;;;;17.15;12.35;;;;;;;;;;6220381;23;20016;-93
2024/03/19 08:03:00;;;;;;;28.17;14.90;;;;;;;;;;6220216;23;20028;-91
2024/03/19 08:05:26;;;;;;;24.80;13.63;;;;;;;;;;6219799;23;20353;-91
2024/03/19 08:07:53;;;;;;;28.17;14.50;;;;;;;;;;6220392;23;20016;-91
2024/03/19 08:10:19;;;;;;;24.42;13.45;;;;;;;;;;6220175;23;20387;-92
2024/03/19 08:12:45;;;;;;;23.73;14.00;;;;;;;;;;6220364;23;20016;-92
2024/03/19 08:15:12;;;;;;;25.33;14.05;;;;;;;;;;6219927;23;20020;-92
2024/03/19 08:17:39;;;;;;;19.27;11.75;;;;;;;;;;6220114;23;20020;-91
2024/03/19 08:20:12;;;;;;;19.13;11.88;;;;;;;;;;6219748;23;20017;-91
2024/03/19 08:22:42;;;;;;;14.07;10.60;;;;;;;;;;6220054;23;20024;-92
2024/03/19 08:25:13;;;;;;;11.98;9.25;;;;;;;;;;6220077;23;20483;-92
2024/03/19 08:27:40;;;;;;;13.23;9.68;;;;;;;;;;6234675;23;20020;-92
2024/03/19 08:30:08;;;;;;;11.35;8.82;;;;;;;;;;6225432;23;20031;-93
2024/03/19 08:32:37;;;;;;;9.63;8.25;;;;;;;;;;6245006;23;20021;-93
2024/03/19 08:35:08;;;;;;;10.50;8.55;;;;;;;;;;6219794;23;20024;-92
2024/03/19 08:37:36;;;;;;;11.88;8.70;;;;;;;;;;6220876;23;20020;-91
2024/03/19 08:40:05;;;;;;;10.70;7.40;;;;;;;;;;6245378;23;20436;-91
2024/03/19 08:42:32;;;;;;;10.73;8.48;;;;;;;;;;6220149;23;20089;-93
2024/03/19 08:44:58;;;;;;;11.30;7.97;;;;;;;;;;6219116;23;20024;-91
2024/03/19 08:47:24;;;;;;;7.80;7.00;;;;;;;;;;6217733;23;20469;-92
2024/03/19 08:49:50;;;;;;;8.02;7.05;;;;;;;;;;6218824;23;20028;-92
2024/03/19 08:52:17;;;;;;;10.15;7.47;;;;;;;;;;6218417;23;20017;-92
2024/03/19 08:54:43;;;;;;;10.02;8.30;;;;;;;;;;6218401;23;20016;-92
2024/03/19 08:57:11;;;;;;;8.18;7.38;;;;;;;;;;6245706;23;20031;-91
2024/03/19 08:59:37;;;;;;;11.93;7.00;;;;;;;;;;6219827;23;20365;-91
2024/03/19 09:02:04;;;;;;;9.93;7.43;;;;;;;;;;6219333;23;20024;-92
2024/03/19 09:04:34;;;;;;;9.77;7.90;;;;;;;;;;6244746;23;20022;-92
2024/03/19 09:07:01;;;;;;;7.80;6.85;;;;;;;;;;6220287;23;20024;-91
2024/03/19 09:09:27;;;;;;;7.18;6.05;;;;;;;;;;6245397;23;20020;-93
2024/03/19 09:11:54;;;;;;;8.50;6.28;;;;;;;;;;6245167;23;20031;-92
2024/03/19 09:14:20;;;;;;;9.00;6.25;;;;;;;;;;6244714;23;20024;-92
2024/03/19 09:16:46;;;;;;;7.03;5.82;;;;;;;;;;6244708;23;20024;-90
2024/03/19 09:19:12;;;;;;;7.30;5.80;;;;;;;;;;6220135;23;20020;-91
2024/03/19 09:21:39;;;;;;;8.57;6.10;;;;;;;;;;6220060;23;20028;-91
2024/03/19 09:24:05;;;;;;;6.28;5.78;;;;;;;;;;6219692;23;20043;-91
2024/03/19 09:26:32;;;;;;;6.53;5.85;;;;;;;;;;6221067;23;20020;-91
2024/03/19 09:28:58;;;;;;;6.80;6.05;;;;;;;;;;6221996;23;20448;-91
2024/03/19 09:31:25;;;;;;;7.60;5.82;;;;;;;;;;6222109;23;20016;-91
2024/03/19 09:33:51;;;;;;;6.60;5.75;;;;;;;;;;6222447;23;20371;-91
2024/03/19 09:36:19;;;;;;;6.63;5.90;;;;;;;;;;6221635;23;20019;-91
2024/03/19 09:38:48;;;;;;;6.47;5.55;;;;;;;;;;6221349;23;20070;-92
2024/03/19 09:41:18;;;;;;;7.78;6.38;;;;;;;;;;6225308;23;20024;-92
2024/03/19 09:43:48;;;;;;;9.13;6.15;;;;;;;;;;6238039;23;20026;-91
2024/03/19 09:46:15;;;;;;;7.40;6.43;;;;;;;;;;6223768;23;20024;-90
2024/03/19 09:48:42;;;;;;;9.32;7.03;;;;;;;;;;6221242;23;20021;-90
2024/03/19 09:51:20;;;;;;;7.95;7.15;;;;;;;;;;6221481;23;20028;-91
2024/03/19 09:53:47;;;;;;;13.63;8.07;;;;;;;;;;6220986;23;20468;-92
2024/03/19 09:56:19;;;;;;;8.32;7.43;;;;;;;;;;6221161;23;20024;-93
2024/03/19 09:58:47;;;;;;;8.85;7.35;;;;;;;;;;6246569;23;20016;-93
2024/03/19 10:01:14;;;;;;;9.57;7.55;;;;;;;;;;6221480;23;20043;-91
2024/03/19 10:03:42;;;;;;;9.63;7.55;;;;;;;;;;6246890;23;20027;-90
2024/03/19 10:06:13;;;;;;;10.23;7.70;;;;;;;;;;6221319;23;20024;-92
2024/03/19 10:08:44;;;;;;;8.82;7.38;;;;;;;;;;6220951;23;20457;-91
2024/03/19 10:11:11;;;;;;;8.45;7.55;;;;;;;;;;6221944;23;20020;-92
2024/03/19 10:13:37;;;;;;;11.95;8.45;;;;;;;;;;6245695;23;20031;-93
2024/03/19 10:16:04;;;;;;;8.52;7.68;;;;;;;;;;6221075;23;20479;-90
2024/03/19 10:18:30;;;;;;;9.60;7.75;;;;;;;;;;6221498;23;20024;-91
2024/03/19 10:20:58;;;;;;;11.32;7.85;;;;;;;;;;6246120;23;20024;-91
2024/03/19 10:23:24;;;;;;;9.95;8.32;;;;;;;;;;6221067;23;20019;-91
2024/03/19 10:25:55;;;;;;;13.38;8.25;;;;;;;;;;6221316;23;20020;-91
2024/03/19 10:28:21;;;;;;;14.00;7.57;;;;;;;;;;6220906;23;20024;-91
2024/03/19 10:30:47;;;;;;;7.95;7.03;;;;;;;;;;6221188;23;20020;-91
2024/03/19 10:33:14;;;;;;;9.02;7.43;;;;;;;;;;6219641;23;20023;-91
2024/03/19 10:35:44;;;;;;;12.57;7.43;;;;;;;;;;6220828;23;20039;-91
2024/03/19 10:38:13;;;;;;;9.68;7.43;;;;;;;;;;6220225;23;20083;-92
2024/03/19 10:40:41;;;;;;;10.45;6.78;;;;;;;;;;6246010;23;20031;-92
2024/03/19 10:43:15;;;;;;;6.70;6.10;;;;;;;;;;6246178;23;20016;-91
2024/03/19 10:45:41;;;;;;;;;;;;;;;;;;6221525;23;20341;-91
2024/03/19 10:48:09;;;;;;;6.45;5.60;;;;;;;;;;6221146;23;19977;-92
2024/03/19 10:50:35;;;;;;;9.50;7.00;;;;;;;;;;6246638;23;20016;-91
2024/03/19 10:53:08;;;;;;;9.02;7.15;;;;;;;;;;6221068;23;20020;-91
2024/03/19 10:55:38;;;;;;;10.75;8.10;;;;;;;;;;6246152;23;20020;-91
2024/03/19 10:58:06;;;;;;;11.90;7.15;;;;;;;;;;6237963;23;20058;-91
2024/03/19 11:00:33;;;;;;;8.30;6.82;;;;;;;;;;6250599;23;20077;-91
2024/03/19 11:03:00;;;;;;;15.27;8.77;;;;;;;;;;6220986;23;20058;-92
2024/03/19 11:05:26;;;;;;;11.75;8.65;;;;;;;;;;6220875;23;20017;-92
2024/03/19 11:07:55;;;;;;;13.35;8.63;;;;;;;;;;6246309;23;20024;-92
2024/03/19 11:10:28;;;;;;;11.00;8.70;;;;;;;;;;6220935;23;20020;-91
2024/03/19 11:13:15;;;;;;;17.20;12.45;;;;;;;;;;6246272;23;20020;-91
2024/03/19 11:15:43;;;;;;;14.15;9.95;;;;;;;;;;6220349;23;20024;-91
2024/03/19 11:18:12;;;;;;;45.03;30.05;;;;;;;;;;6221344;23;20031;-91
2024/03/19 11:20:44;;;;;;;14.18;11.27;;;;;;;;;;6220863;23;20020;-91
2024/03/19 11:23:25;;;;;;;16.85;12.55;;;;;;;;;;6221020;23;20019;-92
2024/03/19 11:25:54;;;;;;;10.35;7.63;;;;;;;;;;6220390;23;20467;-91
2024/03/19 11:28:23;;;;;;;10.13;7.50;;;;;;;;;;6245732;23;20483;-91
2024/03/19 11:30:55;;;;;;;9.77;7.20;;;;;;;;;;6220561;23;20016;-91
2024/03/19 11:33:22;;;;;;;20.17;8.13;;;;;;;;;;6220549;23;20031;-90
2024/03/19 11:35:49;;;;;;;9.57;7.78;;;;;;;;;;6220623;23;20020;-91
2024/03/19 11:38:15;;;;;;;10.15;7.72;;;;;;;;;;6245782;23;20020;-90
2024/03/19 11:40:42;;;;;;;12.52;8.13;;;;;;;;;;6220106;23;20470;-90
2024/03/19 11:43:13;;;;;;;10.32;8.02;;;;;;;;;;6220466;23;20016;-92
2024/03/19 11:45:40;;;;;;;11.23;7.82;;;;;;;;;;6220526;23;20024;-91
2024/03/19 11:48:06;;;;;;;9.00;7.75;;;;;;;;;;6220419;23;20016;-90
2024/03/19 11:50:33;;;;;;;8.80;7.57;;;;;;;;;;6220598;23;20053;-92
2024/03/19 11:52:59;;;;;;;11.25;7.53;;;;;;;;;;6220484;23;20051;-91
2024/03/19 11:55:26;;;;;;;8.35;7.00;;;;;;;;;;6220079;23;20441;-91
2024/03/19 11:57:52;;;;;;;22.65;9.05;;;;;;;;;;6245812;23;20020;-91
2024/03/19 12:00:19;;;;;;;17.35;7.88;;;;;;;;;;6220471;23;20024;-92
2024/03/19 12:02:46;;;;;;;9.55;7.65;;;;;;;;;;6220502;23;20022;-91
2024/03/19 12:05:14;;;;;;;10.77;8.10;;;;;;;;;;6245401;23;20460;-93
2024/03/19 12:07:44;;;;;;;8.80;7.25;;;;;;;;;;6220258;23;20353;-91
2024/03/19 12:10:11;;;;;;;10.25;8.10;;;;;;;;;;6220582;23;20036;-91
2024/03/19 12:12:38;;;;;;;14.90;7.95;;;;;;;;;;6232234;23;20020;-91
2024/03/19 12:15:04;;;;;;;12.93;7.47;;;;;;;;;;6227965;23;20031;-91
2024/03/19 12:17:32;;;;;;;9.75;6.97;;;;;;;;;;6220148;23;20031;-91
2024/03/19 12:19:58;;;;;;;11.23;7.53;;;;;;;;;;6220503;23;20399;-91
2024/03/19 12:22:26;;;;;;;12.45;7.53;;;;;;;;;;6245526;23;20020;-91
2024/03/19 12:24:54;;;;;;;13.52;7.35;;;;;;;;;;6220520;23;20021;-91
2024/03/19 12:27:21;;;;;;;9.77;7.07;;;;;;;;;;6245669;23;20024;-91
2024/03/19 12:29:47;;;;;;;10.40;7.32;;;;;;;;;;6220292;23;20016;-90
2024/03/19 12:32:36;;;;;;;10.45;7.22;;;;;;;;;;6220291;23;20070;-91
2024/03/19 12:35:05;;;;;;;8.00;6.68;;;;;;;;;;6219791;23;20351;-92
2024/03/19 12:37:32;;;;;;;10.13;7.50;;;;;;;;;;6220246;23;20070;-92
2024/03/19 12:39:59;;;;;;;10.77;7.32;;;;;;;;;;6220436;23;20023;-93
2024/03/19 12:42:25;;;;;;;11.43;7.03;;;;;;;;;;6245566;23;20020;-91
2024/03/19 12:44:51;;;;;;;8.98;6.28;;;;;;;;;;6220009;23;20024;-92
2024/03/19 12:47:22;;;;;;;7.78;6.18;;;;;;;;;;6244987;23;20017;-91
2024/03/19 12:49:49;;;;;;;7.63;6.00;;;;;;;;;;6219995;23;20020;-91
2024/03/19 12:52:15;;;;;;;10.80;6.50;;;;;;;;;;6220595;23;20020;-91
2024/03/19 12:54:41;;;;;;;7.38;6.30;;;;;;;;;;6220629;23;20020;-92
2024/03/19 12:57:08;;;;;;;8.50;6.00;;;;;;;;;;6220123;23;20039;-91
2024/03/19 12:59:34;;;;;;;8.10;5.57;;;;;;;;;;6220539;23;20020;-90
2024/03/19 13:02:00;;;;;;;8.27;5.82;;;;;;;;;;6221322;23;20020;-92
2024/03/19 13:04:27;;;;;;;6.00;5.40;;;;;;;;;;6221615;23;20020;-91
2024/03/19 13:06:53;;;;;;;6.18;5.57;;;;;;;;;;6247071;23;20024;-91
2024/03/19 13:09:26;;;;;;;11.32;6.10;;;;;;;;;;6247325;23;20027;-90
2024/03/19 13:11:53;;;;;;;11.93;5.85;;;;;;;;;;6247432;23;20074;-92
2024/03/19 13:14:19;;;;;;;12.77;5.25;;;;;;;;;;6247357;23;20023;-91
2024/03/19 13:16:46;;;;;;;7.85;5.68;;;;;;;;;;6247024;23;20031;-90
2024/03/19 13:19:12;;;;;;;19.50;5.85;;;;;;;;;;6247169;23;20016;-90
2024/03/19 13:21:39;;;;;;;9.43;5.55;;;;;;;;;;6247073;23;20067;-91
2024/03/19 13:24:06;;;;;;;5.28;4.65;;;;;;;;;;6221591;23;20023;-91
2024/03/19 13:26:32;;;;;;;6.20;5.00;;;;;;;;;;6223419;23;20020;-92
2024/03/19 13:28:58;;;;;;;8.10;5.90;;;;;;;;;;6264223;23;20020;-92
2024/03/19 13:31:25;;;;;;;8.20;5.38;;;;;;;;;;6223271;23;20028;-92
2024/03/19 13:33:51;;;;;;;6.30;4.97;;;;;;;;;;6246942;23;20020;-91
2024/03/19 13:36:17;;;;;;;11.57;6.22;;;;;;;;;;6247509;23;20028;-91
2024/03/19 13:38:48;;;;;;;9.07;6.50;;;;;;;;;;6221781;23;20020;-91
2024/03/19 13:41:15;;;;;;;11.68;7.22;;;;;;;;;;6221656;23;20024;-91
2024/03/19 13:43:41;;;;;;;12.63;6.57;;;;;;;;;;6221438;23;20047;-91
2024/03/19 13:46:07;;;;;;;7.57;5.72;;;;;;;;;;6246470;23;20016;-91
2024/03/19 13:48:35;;;;;;;8.93;6.50;;;;;;;;;;6246687;23;20024;-91
2024/03/19 13:51:01;;;;;;;17.42;6.82;;;;;;;;;;6221711;23;20016;-91
2024/03/19 13:53:27;;;;;;;11.82;7.28;;;;;;;;;;6246576;23;20020;-88
2024/03/19 13:55:55;;;;;;;19.90;7.50;;;;;;;;;;6246907;23;20024;-91
2024/03/19 13:58:22;;;;;;;13.07;6.72;;;;;;;;;;6222066;23;20021;-91
2024/03/19 14:00:49;;;;;;;9.23;6.38;;;;;;;;;;6247280;23;20028;-90
2024/03/19 14:03:15;;;;;;;22.70;7.28;;;;;;;;;;6221382;23;20020;-90
2024/03/19 14:05:43;;;;;;;12.35;6.40;;;;;;;;;;6221232;23;20445;-90
2024/03/19 14:08:10;;;;;;;10.60;6.47;;;;;;;;;;6246582;23;20020;-92
2024/03/19 14:10:37;;;;;;;8.57;6.70;;;;;;;;;;6221071;23;20023;-90
2024/03/19 14:13:04;;;;;;;6.88;5.70;;;;;;;;;;6220723;23;20034;-91
2024/03/19 14:15:31;;;;;;;9.00;6.00;;;;;;;;;;6221379;23;20028;-91
2024/03/19 14:17:57;;;;;;;7.30;6.03;;;;;;;;;;6221667;23;20016;-91
2024/03/19 14:20:24;;;;;;;8.60;6.65;;;;;;;;;;6220927;23;20475;-90
2024/03/19 14:22:52;;;;;;;11.35;6.60;;;;;;;;;;6221492;23;20141;-90
2024/03/19 14:25:19;;;;;;;7.95;5.15;;;;;;;;;;6221003;23;20453;-91